sensor_id;sensor_type;location;lat;lon;timestamp;P1;durP1;ratioP1;P2;durP2;ratioP2
79697;SDS011;69168;42.708;23.286;2024-02-15T00:00:20;9.63;;;6.55;;
79697;SDS011;69168;42.708;23.286;2024-02-15T00:02:47;9.82;;;5.63;;
79697;SDS011;69168;42.708;23.286;2024-02-15T00:05:12;11.60;;;6.95;;
79697;SDS011;69168;42.708;23.286;2024-02-15T00:07:39;9.50;;;6.13;;
79697;SDS011;69168;42.708;23.286;2024-02-15T00:10:05;11.75;;;6.40;;
79697;SDS011;69168;42.708;23.286;2024-02-15T00:12:33;8.70;;;5.55;;
79697;SDS011;69168;42.708;23.286;2024-02-15T00:14:58;7.70;;;5.43;;
79697;SDS011;69168;42.708;23.286;2024-02-15T00:17:24;9.05;;;5.63;;
79697;SDS011;69168;42.708;23.286;2024-02-15T00:19:50;9.43;;;6.05;;
79697;SDS011;69168;42.708;23.286;2024-02-15T00:22:16;7.75;;;5.65;;
79697;SDS011;69168;42.708;23.286;2024-02-15T00:24:42;9.57;;;5.90;;
79697;SDS011;69168;42.708;23.286;2024-02-15T00:27:08;10.07;;;6.03;;
79697;SDS011;69168;42.708;23.286;2024-02-15T00:29:33;13.50;;;6.78;;
79697;SDS011;69168;42.708;23.286;2024-02-15T00:31:59;7.72;;;5.50;;
79697;SDS011;69168;42.708;23.286;2024-02-15T00:34:26;8.75;;;6.65;;
79697;SDS011;69168;42.708;23.286;2024-02-15T00:36:52;10.05;;;5.95;;
79697;SDS011;69168;42.708;23.286;2024-02-15T00:39:18;8.10;;;5.90;;
79697;SDS011;69168;42.708;23.286;2024-02-15T00:41:43;11.82;;;6.10;;
79697;SDS011;69168;42.708;23.286;2024-02-15T00:44:10;9.20;;;5.63;;
79697;SDS011;69168;42.708;23.286;2024-02-15T00:46:36;7.82;;;6.28;;
79697;SDS011;69168;42.708;23.286;2024-02-15T00:49:03;10.35;;;5.78;;
79697;SDS011;69168;42.708;23.286;2024-02-15T00:51:31;11.18;;;6.22;;
79697;SDS011;69168;42.708;23.286;2024-02-15T00:53:59;10.50;;;5.43;;
79697;SDS011;69168;42.708;23.286;2024-02-15T00:56:25;10.05;;;5.55;;
79697;SDS011;69168;42.708;23.286;2024-02-15T00:58:51;8.77;;;5.22;;
79697;SDS011;69168;42.708;23.286;2024-02-15T01:01:16;7.43;;;4.93;;
79697;SDS011;69168;42.708;23.286;2024-02-15T01:03:42;10.90;;;5.50;;
79697;SDS011;69168;42.708;23.286;2024-02-15T01:06:07;11.57;;;6.00;;
79697;SDS011;69168;42.708;23.286;2024-02-15T01:08:33;11.18;;;6.13;;
79697;SDS011;69168;42.708;23.286;2024-02-15T01:10:59;6.95;;;5.25;;
79697;SDS011;69168;42.708;23.286;2024-02-15T01:13:25;11.38;;;5.97;;
79697;SDS011;69168;42.708;23.286;2024-02-15T01:15:50;11.63;;;6.35;;
79697;SDS011;69168;42.708;23.286;2024-02-15T01:18:16;9.60;;;5.88;;
79697;SDS011;69168;42.708;23.286;2024-02-15T01:20:41;12.85;;;5.97;;
79697;SDS011;69168;42.708;23.286;2024-02-15T01:23:07;8.90;;;5.68;;
79697;SDS011;69168;42.708;23.286;2024-02-15T01:25:33;9.48;;;5.85;;
79697;SDS011;69168;42.708;23.286;2024-02-15T01:27:58;9.27;;;5.45;;
79697;SDS011;69168;42.708;23.286;2024-02-15T01:30:26;10.15;;;5.88;;
79697;SDS011;69168;42.708;23.286;2024-02-15T01:32:53;8.70;;;5.57;;
79697;SDS011;69168;42.708;23.286;2024-02-15T01:35:19;10.35;;;5.70;;
79697;SDS011;69168;42.708;23.286;2024-02-15T01:37:45;9.95;;;5.57;;
79697;SDS011;69168;42.708;23.286;2024-02-15T01:40:10;9.98;;;6.13;;
79697;SDS011;69168;42.708;23.286;2024-02-15T01:45:04;9.70;;;5.93;;
79697;SDS011;69168;42.708;23.286;2024-02-15T01:47:30;8.32;;;5.00;;
79697;SDS011;69168;42.708;23.286;2024-02-15T01:49:56;8.25;;;6.07;;
79697;SDS011;69168;42.708;23.286;2024-02-15T01:52:21;11.15;;;6.35;;
79697;SDS011;69168;42.708;23.286;2024-02-15T01:54:47;9.05;;;5.63;;
79697;SDS011;69168;42.708;23.286;2024-02-15T01:57:14;11.50;;;6.70;;
79697;SDS011;69168;42.708;23.286;2024-02-15T01:59:41;8.95;;;5.97;;
79697;SDS011;69168;42.708;23.286;2024-02-15T02:02:08;10.65;;;5.68;;
79697;SDS011;69168;42.708;23.286;2024-02-15T02:04:37;9.82;;;5.10;;
79697;SDS011;69168;42.708;23.286;2024-02-15T02:07:03;8.93;;;5.45;;
79697;SDS011;69168;42.708;23.286;2024-02-15T02:09:29;8.90;;;5.78;;
79697;SDS011;69168;42.708;23.286;2024-02-15T02:11:55;10.70;;;5.93;;
79697;SDS011;69168;42.708;23.286;2024-02-15T02:14:20;13.80;;;6.50;;
79697;SDS011;69168;42.708;23.286;2024-02-15T02:16:46;9.15;;;6.20;;
79697;SDS011;69168;42.708;23.286;2024-02-15T02:19:12;13.15;;;6.50;;
79697;SDS011;69168;42.708;23.286;2024-02-15T02:21:37;11.02;;;6.97;;
79697;SDS011;69168;42.708;23.286;2024-02-15T02:24:05;11.20;;;6.40;;
79697;SDS011;69168;42.708;23.286;2024-02-15T02:29:04;11.55;;;6.55;;
79697;SDS011;69168;42.708;23.286;2024-02-15T02:31:36;9.68;;;5.80;;
79697;SDS011;69168;42.708;23.286;2024-02-15T02:34:02;11.75;;;7.45;;
79697;SDS011;69168;42.708;23.286;2024-02-15T02:36:28;11.38;;;6.25;;
79697;SDS011;69168;42.708;23.286;2024-02-15T02:38:54;13.68;;;6.30;;
79697;SDS011;69168;42.708;23.286;2024-02-15T02:41:20;14.48;;;6.38;;
79697;SDS011;69168;42.708;23.286;2024-02-15T02:43:46;10.60;;;6.70;;
79697;SDS011;69168;42.708;23.286;2024-02-15T02:46:12;12.00;;;6.90;;
79697;SDS011;69168;42.708;23.286;2024-02-15T02:48:38;11.13;;;6.25;;
79697;SDS011;69168;42.708;23.286;2024-02-15T02:51:04;10.68;;;7.22;;
79697;SDS011;69168;42.708;23.286;2024-02-15T02:55:57;11.60;;;6.40;;
79697;SDS011;69168;42.708;23.286;2024-02-15T02:58:23;12.00;;;7.03;;
79697;SDS011;69168;42.708;23.286;2024-02-15T03:00:48;10.40;;;6.60;;
79697;SDS011;69168;42.708;23.286;2024-02-15T03:03:15;11.25;;;7.40;;
79697;SDS011;69168;42.708;23.286;2024-02-15T03:05:41;10.95;;;6.05;;
79697;SDS011;69168;42.708;23.286;2024-02-15T03:08:08;10.40;;;7.10;;
79697;SDS011;69168;42.708;23.286;2024-02-15T03:10:34;11.65;;;5.78;;
79697;SDS011;69168;42.708;23.286;2024-02-15T03:12:59;12.07;;;6.70;;
79697;SDS011;69168;42.708;23.286;2024-02-15T03:15:25;13.60;;;7.40;;
79697;SDS011;69168;42.708;23.286;2024-02-15T03:17:50;12.52;;;7.45;;
79697;SDS011;69168;42.708;23.286;2024-02-15T03:20:16;12.98;;;7.40;;
79697;SDS011;69168;42.708;23.286;2024-02-15T03:22:52;12.18;;;6.95;;
79697;SDS011;69168;42.708;23.286;2024-02-15T03:25:23;12.45;;;7.03;;
79697;SDS011;69168;42.708;23.286;2024-02-15T03:27:52;12.00;;;7.35;;
79697;SDS011;69168;42.708;23.286;2024-02-15T03:30:22;13.15;;;7.30;;
79697;SDS011;69168;42.708;23.286;2024-02-15T03:32:52;10.75;;;6.95;;
79697;SDS011;69168;42.708;23.286;2024-02-15T03:35:18;11.18;;;7.22;;
79697;SDS011;69168;42.708;23.286;2024-02-15T03:37:47;12.90;;;7.57;;
79697;SDS011;69168;42.708;23.286;2024-02-15T03:40:16;13.20;;;6.85;;
79697;SDS011;69168;42.708;23.286;2024-02-15T03:42:41;12.55;;;7.00;;
79697;SDS011;69168;42.708;23.286;2024-02-15T03:45:07;16.63;;;8.27;;
79697;SDS011;69168;42.708;23.286;2024-02-15T03:47:33;11.88;;;6.88;;
79697;SDS011;69168;42.708;23.286;2024-02-15T03:50:00;11.93;;;6.55;;
79697;SDS011;69168;42.708;23.286;2024-02-15T03:52:27;11.60;;;7.30;;
79697;SDS011;69168;42.708;23.286;2024-02-15T03:54:52;12.75;;;6.45;;
79697;SDS011;69168;42.708;23.286;2024-02-15T03:57:18;13.35;;;6.97;;
79697;SDS011;69168;42.708;23.286;2024-02-15T03:59:46;15.85;;;7.70;;
79697;SDS011;69168;42.708;23.286;2024-02-15T04:02:15;11.57;;;6.45;;
79697;SDS011;69168;42.708;23.286;2024-02-15T04:04:41;11.48;;;5.68;;
79697;SDS011;69168;42.708;23.286;2024-02-15T04:07:08;13.02;;;6.97;;
79697;SDS011;69168;42.708;23.286;2024-02-15T04:09:34;12.27;;;6.80;;
79697;SDS011;69168;42.708;23.286;2024-02-15T04:12:01;14.68;;;7.63;;
79697;SDS011;69168;42.708;23.286;2024-02-15T04:14:27;11.75;;;6.68;;
79697;SDS011;69168;42.708;23.286;2024-02-15T04:16:53;12.75;;;7.65;;
79697;SDS011;69168;42.708;23.286;2024-02-15T04:19:18;13.00;;;7.68;;
79697;SDS011;69168;42.708;23.286;2024-02-15T04:21:45;12.57;;;6.93;;
79697;SDS011;69168;42.708;23.286;2024-02-15T04:24:11;11.93;;;7.20;;
79697;SDS011;69168;42.708;23.286;2024-02-15T04:26:37;12.95;;;6.85;;
79697;SDS011;69168;42.708;23.286;2024-02-15T04:29:03;14.18;;;8.07;;
79697;SDS011;69168;42.708;23.286;2024-02-15T04:31:29;12.60;;;6.70;;
79697;SDS011;69168;42.708;23.286;2024-02-15T04:33:55;10.23;;;6.47;;
79697;SDS011;69168;42.708;23.286;2024-02-15T04:36:21;10.20;;;6.28;;
79697;SDS011;69168;42.708;23.286;2024-02-15T04:38:51;12.52;;;6.50;;
79697;SDS011;69168;42.708;23.286;2024-02-15T04:41:17;13.68;;;7.47;;
79697;SDS011;69168;42.708;23.286;2024-02-15T04:43:50;13.65;;;6.95;;
79697;SDS011;69168;42.708;23.286;2024-02-15T04:46:16;13.80;;;7.30;;
79697;SDS011;69168;42.708;23.286;2024-02-15T04:48:42;11.50;;;6.78;;
79697;SDS011;69168;42.708;23.286;2024-02-15T04:51:08;11.82;;;6.95;;
79697;SDS011;69168;42.708;23.286;2024-02-15T04:53:35;12.52;;;6.80;;
79697;SDS011;69168;42.708;23.286;2024-02-15T04:56:03;12.38;;;6.43;;
79697;SDS011;69168;42.708;23.286;2024-02-15T04:58:36;13.52;;;7.50;;
79697;SDS011;69168;42.708;23.286;2024-02-15T05:01:02;11.27;;;6.82;;
79697;SDS011;69168;42.708;23.286;2024-02-15T05:03:30;13.38;;;6.70;;
79697;SDS011;69168;42.708;23.286;2024-02-15T05:05:59;12.38;;;7.20;;
79697;SDS011;69168;42.708;23.286;2024-02-15T05:08:25;13.88;;;7.75;;
79697;SDS011;69168;42.708;23.286;2024-02-15T05:10:51;13.52;;;7.13;;
79697;SDS011;69168;42.708;23.286;2024-02-15T05:13:21;13.63;;;7.63;;
79697;SDS011;69168;42.708;23.286;2024-02-15T05:15:49;15.55;;;6.47;;
79697;SDS011;69168;42.708;23.286;2024-02-15T05:18:15;14.02;;;7.78;;
79697;SDS011;69168;42.708;23.286;2024-02-15T05:20:42;14.98;;;7.93;;
79697;SDS011;69168;42.708;23.286;2024-02-15T05:23:07;12.65;;;7.30;;
79697;SDS011;69168;42.708;23.286;2024-02-15T05:25:33;13.00;;;6.65;;
79697;SDS011;69168;42.708;23.286;2024-02-15T05:28:00;17.65;;;8.07;;
79697;SDS011;69168;42.708;23.286;2024-02-15T05:30:26;13.48;;;7.45;;
79697;SDS011;69168;42.708;23.286;2024-02-15T05:32:52;13.23;;;6.57;;
79697;SDS011;69168;42.708;23.286;2024-02-15T05:35:18;13.93;;;8.43;;
79697;SDS011;69168;42.708;23.286;2024-02-15T05:37:44;15.80;;;7.88;;
79697;SDS011;69168;42.708;23.286;2024-02-15T05:40:11;11.57;;;6.93;;
79697;SDS011;69168;42.708;23.286;2024-02-15T05:42:42;11.20;;;7.25;;
79697;SDS011;69168;42.708;23.286;2024-02-15T05:47:50;14.52;;;8.48;;
79697;SDS011;69168;42.708;23.286;2024-02-15T05:50:16;14.02;;;6.55;;
79697;SDS011;69168;42.708;23.286;2024-02-15T05:52:45;12.98;;;7.80;;
79697;SDS011;69168;42.708;23.286;2024-02-15T05:55:11;14.73;;;8.38;;
79697;SDS011;69168;42.708;23.286;2024-02-15T05:57:41;14.27;;;7.88;;
79697;SDS011;69168;42.708;23.286;2024-02-15T06:00:10;15.88;;;8.02;;
79697;SDS011;69168;42.708;23.286;2024-02-15T06:02:36;16.45;;;7.20;;
79697;SDS011;69168;42.708;23.286;2024-02-15T06:05:03;14.90;;;7.47;;
79697;SDS011;69168;42.708;23.286;2024-02-15T06:07:30;16.95;;;7.03;;
79697;SDS011;69168;42.708;23.286;2024-02-15T06:09:59;14.05;;;7.05;;
79697;SDS011;69168;42.708;23.286;2024-02-15T06:12:29;10.68;;;6.78;;
79697;SDS011;69168;42.708;23.286;2024-02-15T06:14:55;16.48;;;6.95;;
79697;SDS011;69168;42.708;23.286;2024-02-15T06:17:20;16.20;;;6.80;;
79697;SDS011;69168;42.708;23.286;2024-02-15T06:19:46;12.10;;;6.68;;
79697;SDS011;69168;42.708;23.286;2024-02-15T06:22:11;14.85;;;7.72;;
79697;SDS011;69168;42.708;23.286;2024-02-15T06:24:38;12.98;;;7.18;;
79697;SDS011;69168;42.708;23.286;2024-02-15T06:27:04;15.57;;;6.88;;
79697;SDS011;69168;42.708;23.286;2024-02-15T06:29:30;12.30;;;5.82;;
79697;SDS011;69168;42.708;23.286;2024-02-15T06:32:15;15.40;;;7.40;;
79697;SDS011;69168;42.708;23.286;2024-02-15T06:34:59;10.48;;;5.47;;
79697;SDS011;69168;42.708;23.286;2024-02-15T06:37:43;14.80;;;7.03;;
79697;SDS011;69168;42.708;23.286;2024-02-15T06:40:27;14.23;;;6.97;;
79697;SDS011;69168;42.708;23.286;2024-02-15T06:42:53;13.93;;;7.55;;
79697;SDS011;69168;42.708;23.286;2024-02-15T06:45:19;15.57;;;7.20;;
79697;SDS011;69168;42.708;23.286;2024-02-15T06:47:45;14.93;;;7.18;;
79697;SDS011;69168;42.708;23.286;2024-02-15T06:50:11;13.02;;;7.38;;
79697;SDS011;69168;42.708;23.286;2024-02-15T06:52:37;9.93;;;5.15;;
79697;SDS011;69168;42.708;23.286;2024-02-15T06:55:04;16.60;;;6.78;;
79697;SDS011;69168;42.708;23.286;2024-02-15T06:57:33;14.07;;;7.25;;
79697;SDS011;69168;42.708;23.286;2024-02-15T07:00:01;10.50;;;6.53;;
79697;SDS011;69168;42.708;23.286;2024-02-15T07:02:32;13.77;;;6.95;;
79697;SDS011;69168;42.708;23.286;2024-02-15T07:04:58;12.57;;;7.30;;
79697;SDS011;69168;42.708;23.286;2024-02-15T07:07:24;17.20;;;7.10;;
79697;SDS011;69168;42.708;23.286;2024-02-15T07:09:50;16.50;;;7.32;;
79697;SDS011;69168;42.708;23.286;2024-02-15T07:12:16;14.63;;;7.72;;
79697;SDS011;69168;42.708;23.286;2024-02-15T07:14:42;13.32;;;6.40;;
79697;SDS011;69168;42.708;23.286;2024-02-15T07:17:08;14.93;;;7.22;;
79697;SDS011;69168;42.708;23.286;2024-02-15T07:19:34;17.02;;;6.82;;
79697;SDS011;69168;42.708;23.286;2024-02-15T07:22:02;13.68;;;6.30;;
79697;SDS011;69168;42.708;23.286;2024-02-15T07:24:27;9.30;;;5.72;;
79697;SDS011;69168;42.708;23.286;2024-02-15T07:26:53;12.55;;;6.60;;
79697;SDS011;69168;42.708;23.286;2024-02-15T07:29:21;11.52;;;6.35;;
79697;SDS011;69168;42.708;23.286;2024-02-15T07:31:50;11.48;;;6.78;;
79697;SDS011;69168;42.708;23.286;2024-02-15T07:34:15;13.43;;;7.43;;
79697;SDS011;69168;42.708;23.286;2024-02-15T07:36:42;11.20;;;6.53;;
79697;SDS011;69168;42.708;23.286;2024-02-15T07:39:08;13.13;;;7.60;;
79697;SDS011;69168;42.708;23.286;2024-02-15T07:41:37;14.45;;;6.70;;
79697;SDS011;69168;42.708;23.286;2024-02-15T07:44:03;12.20;;;6.80;;
79697;SDS011;69168;42.708;23.286;2024-02-15T07:46:29;13.27;;;6.70;;
79697;SDS011;69168;42.708;23.286;2024-02-15T07:48:55;13.10;;;6.68;;
79697;SDS011;69168;42.708;23.286;2024-02-15T07:51:21;14.70;;;6.43;;
79697;SDS011;69168;42.708;23.286;2024-02-15T07:53:48;15.07;;;7.15;;
79697;SDS011;69168;42.708;23.286;2024-02-15T07:56:15;12.52;;;6.30;;
79697;SDS011;69168;42.708;23.286;2024-02-15T07:58:41;11.93;;;6.43;;
79697;SDS011;69168;42.708;23.286;2024-02-15T08:01:11;11.45;;;6.75;;
79697;SDS011;69168;42.708;23.286;2024-02-15T08:03:38;16.00;;;7.00;;
79697;SDS011;69168;42.708;23.286;2024-02-15T08:06:09;13.43;;;6.18;;
79697;SDS011;69168;42.708;23.286;2024-02-15T08:08:45;12.25;;;6.63;;
79697;SDS011;69168;42.708;23.286;2024-02-15T08:11:12;16.05;;;6.90;;
79697;SDS011;69168;42.708;23.286;2024-02-15T08:16:19;15.82;;;7.20;;
79697;SDS011;69168;42.708;23.286;2024-02-15T08:18:49;12.07;;;6.93;;
79697;SDS011;69168;42.708;23.286;2024-02-15T08:21:18;14.63;;;6.63;;
79697;SDS011;69168;42.708;23.286;2024-02-15T08:23:46;10.55;;;5.70;;
79697;SDS011;69168;42.708;23.286;2024-02-15T08:26:11;13.18;;;6.13;;
79697;SDS011;69168;42.708;23.286;2024-02-15T08:28:37;13.75;;;6.28;;
79697;SDS011;69168;42.708;23.286;2024-02-15T08:31:02;12.77;;;6.72;;
79697;SDS011;69168;42.708;23.286;2024-02-15T08:33:29;13.95;;;5.78;;
79697;SDS011;69168;42.708;23.286;2024-02-15T08:35:55;14.88;;;5.53;;
79697;SDS011;69168;42.708;23.286;2024-02-15T08:38:22;11.80;;;5.82;;
79697;SDS011;69168;42.708;23.286;2024-02-15T08:40:48;13.27;;;6.28;;
79697;SDS011;69168;42.708;23.286;2024-02-15T08:43:13;11.77;;;5.97;;
79697;SDS011;69168;42.708;23.286;2024-02-15T08:45:40;10.48;;;6.13;;
79697;SDS011;69168;42.708;23.286;2024-02-15T08:48:07;8.00;;;5.53;;
79697;SDS011;69168;42.708;23.286;2024-02-15T08:50:32;7.20;;;4.43;;
79697;SDS011;69168;42.708;23.286;2024-02-15T08:52:58;11.10;;;5.72;;
79697;SDS011;69168;42.708;23.286;2024-02-15T08:55:24;10.63;;;4.78;;
79697;SDS011;69168;42.708;23.286;2024-02-15T08:57:52;9.23;;;4.90;;
79697;SDS011;69168;42.708;23.286;2024-02-15T09:00:18;11.13;;;6.13;;
79697;SDS011;69168;42.708;23.286;2024-02-15T09:02:45;10.45;;;5.90;;
79697;SDS011;69168;42.708;23.286;2024-02-15T09:05:11;12.80;;;5.97;;
79697;SDS011;69168;42.708;23.286;2024-02-15T09:07:41;12.52;;;6.05;;
79697;SDS011;69168;42.708;23.286;2024-02-15T09:10:08;11.35;;;5.32;;
79697;SDS011;69168;42.708;23.286;2024-02-15T09:12:38;10.70;;;5.85;;
79697;SDS011;69168;42.708;23.286;2024-02-15T09:15:09;8.45;;;4.65;;
79697;SDS011;69168;42.708;23.286;2024-02-15T09:17:37;9.65;;;5.40;;
79697;SDS011;69168;42.708;23.286;2024-02-15T09:20:06;9.02;;;5.25;;
79697;SDS011;69168;42.708;23.286;2024-02-15T09:22:53;9.82;;;5.30;;
79697;SDS011;69168;42.708;23.286;2024-02-15T09:25:20;9.70;;;4.90;;
79697;SDS011;69168;42.708;23.286;2024-02-15T09:27:50;9.88;;;5.47;;
79697;SDS011;69168;42.708;23.286;2024-02-15T09:30:16;9.57;;;5.22;;
79697;SDS011;69168;42.708;23.286;2024-02-15T09:32:43;10.32;;;5.28;;
79697;SDS011;69168;42.708;23.286;2024-02-15T09:35:09;11.27;;;4.85;;
79697;SDS011;69168;42.708;23.286;2024-02-15T09:37:42;9.43;;;4.93;;
79697;SDS011;69168;42.708;23.286;2024-02-15T09:40:14;10.75;;;4.90;;
79697;SDS011;69168;42.708;23.286;2024-02-15T09:42:42;9.27;;;4.68;;
79697;SDS011;69168;42.708;23.286;2024-02-15T09:45:10;8.85;;;5.35;;
79697;SDS011;69168;42.708;23.286;2024-02-15T09:47:40;7.15;;;4.13;;
79697;SDS011;69168;42.708;23.286;2024-02-15T09:50:06;8.52;;;4.35;;
79697;SDS011;69168;42.708;23.286;2024-02-15T09:55:02;7.68;;;4.43;;
79697;SDS011;69168;42.708;23.286;2024-02-15T09:57:32;7.60;;;4.90;;
79697;SDS011;69168;42.708;23.286;2024-02-15T09:59:58;8.50;;;4.18;;
79697;SDS011;69168;42.708;23.286;2024-02-15T10:02:35;11.13;;;5.20;;
79697;SDS011;69168;42.708;23.286;2024-02-15T10:05:03;10.52;;;5.50;;
79697;SDS011;69168;42.708;23.286;2024-02-15T10:07:29;9.57;;;4.97;;
79697;SDS011;69168;42.708;23.286;2024-02-15T10:09:54;8.93;;;4.80;;
79697;SDS011;69168;42.708;23.286;2024-02-15T10:12:20;9.02;;;3.72;;
79697;SDS011;69168;42.708;23.286;2024-02-15T10:14:49;8.98;;;4.88;;
79697;SDS011;69168;42.708;23.286;2024-02-15T10:17:17;8.95;;;5.22;;
79697;SDS011;69168;42.708;23.286;2024-02-15T10:19:44;7.80;;;4.55;;
79697;SDS011;69168;42.708;23.286;2024-02-15T10:22:10;8.68;;;5.03;;
79697;SDS011;69168;42.708;23.286;2024-02-15T10:24:39;9.23;;;4.80;;
79697;SDS011;69168;42.708;23.286;2024-02-15T10:27:05;7.03;;;4.35;;
79697;SDS011;69168;42.708;23.286;2024-02-15T10:29:35;8.02;;;4.38;;
79697;SDS011;69168;42.708;23.286;2024-02-15T10:32:03;8.40;;;4.88;;
79697;SDS011;69168;42.708;23.286;2024-02-15T10:34:33;11.23;;;4.80;;
79697;SDS011;69168;42.708;23.286;2024-02-15T10:37:11;7.28;;;4.65;;
79697;SDS011;69168;42.708;23.286;2024-02-15T10:39:41;8.77;;;4.55;;
79697;SDS011;69168;42.708;23.286;2024-02-15T10:42:07;7.88;;;4.70;;
79697;SDS011;69168;42.708;23.286;2024-02-15T10:44:36;8.82;;;4.78;;
79697;SDS011;69168;42.708;23.286;2024-02-15T10:49:32;5.68;;;3.50;;
79697;SDS011;69168;42.708;23.286;2024-02-15T10:51:59;8.95;;;4.10;;
79697;SDS011;69168;42.708;23.286;2024-02-15T10:57:19;7.20;;;4.07;;
79697;SDS011;69168;42.708;23.286;2024-02-15T11:04:55;10.25;;;4.57;;
79697;SDS011;69168;42.708;23.286;2024-02-15T11:07:34;6.90;;;4.75;;
79697;SDS011;69168;42.708;23.286;2024-02-15T11:10:00;7.70;;;4.95;;
79697;SDS011;69168;42.708;23.286;2024-02-15T11:12:27;9.85;;;5.05;;
79697;SDS011;69168;42.708;23.286;2024-02-15T11:14:54;8.70;;;4.80;;
79697;SDS011;69168;42.708;23.286;2024-02-15T11:22:57;7.28;;;4.90;;
79697;SDS011;69168;42.708;23.286;2024-02-15T11:25:37;6.75;;;3.95;;
79697;SDS011;69168;42.708;23.286;2024-02-15T11:30:54;8.05;;;4.57;;
79697;SDS011;69168;42.708;23.286;2024-02-15T11:33:32;6.82;;;4.03;;
79697;SDS011;69168;42.708;23.286;2024-02-15T11:38:31;8.05;;;4.22;;
79697;SDS011;69168;42.708;23.286;2024-02-15T11:46:19;8.75;;;5.00;;
79697;SDS011;69168;42.708;23.286;2024-02-15T11:53:59;8.43;;;4.82;;
79697;SDS011;69168;42.708;23.286;2024-02-15T11:56:31;7.45;;;4.47;;
79697;SDS011;69168;42.708;23.286;2024-02-15T11:59:30;9.15;;;4.50;;
79697;SDS011;69168;42.708;23.286;2024-02-15T12:02:07;6.82;;;4.25;;
79697;SDS011;69168;42.708;23.286;2024-02-15T12:04:52;5.95;;;4.35;;
79697;SDS011;69168;42.708;23.286;2024-02-15T12:07:36;9.38;;;4.97;;
79697;SDS011;69168;42.708;23.286;2024-02-15T12:10:20;7.93;;;4.20;;
79697;SDS011;69168;42.708;23.286;2024-02-15T12:13:04;7.18;;;4.25;;
79697;SDS011;69168;42.708;23.286;2024-02-15T12:16:00;6.82;;;4.40;;
79697;SDS011;69168;42.708;23.286;2024-02-15T12:18:45;5.22;;;4.22;;
79697;SDS011;69168;42.708;23.286;2024-02-15T12:21:16;6.53;;;4.55;;
79697;SDS011;69168;42.708;23.286;2024-02-15T12:23:48;9.00;;;4.28;;
79697;SDS011;69168;42.708;23.286;2024-02-15T12:26:18;7.82;;;4.50;;
79697;SDS011;69168;42.708;23.286;2024-02-15T12:28:44;6.82;;;4.28;;
79697;SDS011;69168;42.708;23.286;2024-02-15T12:31:15;5.38;;;4.40;;
79697;SDS011;69168;42.708;23.286;2024-02-15T12:33:40;6.82;;;4.82;;
79697;SDS011;69168;42.708;23.286;2024-02-15T12:36:07;6.22;;;4.20;;
79697;SDS011;69168;42.708;23.286;2024-02-15T12:38:33;10.52;;;4.78;;
79697;SDS011;69168;42.708;23.286;2024-02-15T12:41:02;9.15;;;4.60;;
79697;SDS011;69168;42.708;23.286;2024-02-15T12:43:54;7.35;;;4.50;;
79697;SDS011;69168;42.708;23.286;2024-02-15T12:46:22;7.93;;;4.32;;
79697;SDS011;69168;42.708;23.286;2024-02-15T12:48:48;6.78;;;3.75;;
79697;SDS011;69168;42.708;23.286;2024-02-15T12:51:14;9.00;;;4.40;;
79697;SDS011;69168;42.708;23.286;2024-02-15T12:53:41;6.20;;;4.45;;
79697;SDS011;69168;42.708;23.286;2024-02-15T12:56:07;6.18;;;4.30;;
79697;SDS011;69168;42.708;23.286;2024-02-15T12:58:34;5.95;;;4.20;;
79697;SDS011;69168;42.708;23.286;2024-02-15T13:01:00;6.93;;;4.30;;
79697;SDS011;69168;42.708;23.286;2024-02-15T13:03:27;7.68;;;4.70;;
79697;SDS011;69168;42.708;23.286;2024-02-15T13:05:52;5.80;;;4.35;;
79697;SDS011;69168;42.708;23.286;2024-02-15T13:08:18;8.38;;;4.22;;
79697;SDS011;69168;42.708;23.286;2024-02-15T13:10:45;6.60;;;4.35;;
79697;SDS011;69168;42.708;23.286;2024-02-15T13:13:11;8.02;;;4.63;;
79697;SDS011;69168;42.708;23.286;2024-02-15T13:15:39;5.97;;;4.10;;
79697;SDS011;69168;42.708;23.286;2024-02-15T13:18:05;8.65;;;4.32;;
79697;SDS011;69168;42.708;23.286;2024-02-15T13:20:30;5.45;;;3.75;;
79697;SDS011;69168;42.708;23.286;2024-02-15T13:23:01;8.18;;;4.15;;
79697;SDS011;69168;42.708;23.286;2024-02-15T13:25:33;7.82;;;4.10;;
79697;SDS011;69168;42.708;23.286;2024-02-15T13:28:02;6.75;;;4.13;;
79697;SDS011;69168;42.708;23.286;2024-02-15T13:30:29;6.68;;;4.65;;
79697;SDS011;69168;42.708;23.286;2024-02-15T13:32:55;7.07;;;4.60;;
79697;SDS011;69168;42.708;23.286;2024-02-15T13:35:21;7.03;;;4.30;;
79697;SDS011;69168;42.708;23.286;2024-02-15T13:37:54;9.40;;;4.25;;
79697;SDS011;69168;42.708;23.286;2024-02-15T13:40:23;5.80;;;4.47;;
79697;SDS011;69168;42.708;23.286;2024-02-15T13:45:20;6.45;;;3.60;;
79697;SDS011;69168;42.708;23.286;2024-02-15T13:48:00;5.63;;;4.18;;
79697;SDS011;69168;42.708;23.286;2024-02-15T13:50:28;9.43;;;4.13;;
79697;SDS011;69168;42.708;23.286;2024-02-15T13:52:54;7.88;;;4.28;;
79697;SDS011;69168;42.708;23.286;2024-02-15T13:55:20;5.47;;;4.03;;
79697;SDS011;69168;42.708;23.286;2024-02-15T13:57:46;7.85;;;3.75;;
79697;SDS011;69168;42.708;23.286;2024-02-15T14:00:14;6.15;;;4.45;;
79697;SDS011;69168;42.708;23.286;2024-02-15T14:02:55;7.63;;;4.03;;
79697;SDS011;69168;42.708;23.286;2024-02-15T14:05:23;10.27;;;4.10;;
79697;SDS011;69168;42.708;23.286;2024-02-15T14:07:50;7.20;;;4.55;;
79697;SDS011;69168;42.708;23.286;2024-02-15T14:10:20;9.45;;;4.22;;
79697;SDS011;69168;42.708;23.286;2024-02-15T14:12:47;8.02;;;4.90;;
79697;SDS011;69168;42.708;23.286;2024-02-15T14:15:16;6.32;;;4.40;;
79697;SDS011;69168;42.708;23.286;2024-02-15T14:17:45;6.57;;;4.45;;
79697;SDS011;69168;42.708;23.286;2024-02-15T14:20:11;7.95;;;4.60;;
79697;SDS011;69168;42.708;23.286;2024-02-15T14:22:44;6.03;;;4.00;;
79697;SDS011;69168;42.708;23.286;2024-02-15T14:25:31;5.78;;;4.15;;
79697;SDS011;69168;42.708;23.286;2024-02-15T14:27:57;6.78;;;4.28;;
79697;SDS011;69168;42.708;23.286;2024-02-15T14:30:23;6.47;;;4.20;;
79697;SDS011;69168;42.708;23.286;2024-02-15T14:33:08;7.35;;;4.25;;
79697;SDS011;69168;42.708;23.286;2024-02-15T14:35:37;6.90;;;4.70;;
79697;SDS011;69168;42.708;23.286;2024-02-15T14:38:08;6.07;;;4.93;;
79697;SDS011;69168;42.708;23.286;2024-02-15T14:40:44;9.38;;;4.35;;
79697;SDS011;69168;42.708;23.286;2024-02-15T14:43:13;5.57;;;3.60;;
79697;SDS011;69168;42.708;23.286;2024-02-15T14:45:40;7.78;;;5.45;;
79697;SDS011;69168;42.708;23.286;2024-02-15T14:48:06;8.25;;;4.88;;
79697;SDS011;69168;42.708;23.286;2024-02-15T14:50:35;7.35;;;4.05;;
79697;SDS011;69168;42.708;23.286;2024-02-15T14:53:01;7.82;;;4.55;;
79697;SDS011;69168;42.708;23.286;2024-02-15T14:55:26;12.93;;;4.50;;
79697;SDS011;69168;42.708;23.286;2024-02-15T14:57:54;6.75;;;4.40;;
79697;SDS011;69168;42.708;23.286;2024-02-15T15:00:19;6.28;;;4.22;;
79697;SDS011;69168;42.708;23.286;2024-02-15T15:05:12;6.93;;;3.90;;
79697;SDS011;69168;42.708;23.286;2024-02-15T15:07:57;6.30;;;3.92;;
79697;SDS011;69168;42.708;23.286;2024-02-15T15:10:41;7.57;;;3.83;;
79697;SDS011;69168;42.708;23.286;2024-02-15T15:13:25;6.80;;;4.20;;
79697;SDS011;69168;42.708;23.286;2024-02-15T15:15:51;6.95;;;4.70;;
79697;SDS011;69168;42.708;23.286;2024-02-15T15:18:17;6.55;;;4.30;;
79697;SDS011;69168;42.708;23.286;2024-02-15T15:20:43;9.85;;;4.05;;
79697;SDS011;69168;42.708;23.286;2024-02-15T15:23:09;9.68;;;3.63;;
79697;SDS011;69168;42.708;23.286;2024-02-15T15:25:35;6.88;;;4.55;;